createdAt,value
2022-10-15T04:00:25.449Z,5.78
2022-10-15T04:03:29.217Z,5.87
2022-10-15T04:06:34.154Z,4.22
2022-10-15T04:09:39.293Z,5.45
2022-10-15T04:12:47.497Z,4.80
2022-10-15T04:15:50.720Z,4.43
2022-10-15T04:18:52.841Z,4.22
2022-10-15T04:21:55.198Z,4.35
2022-10-15T04:24:59.766Z,5.55
2022-10-15T04:28:02.333Z,5.18
2022-10-15T04:31:04.738Z,6.53
2022-10-15T04:34:07.803Z,3.90
2022-10-15T04:37:10.722Z,4.93
2022-10-15T04:40:13.602Z,6.43
2022-10-15T04:43:15.825Z,5.80
2022-10-15T04:46:18.434Z,4.68
2022-10-15T04:49:21.414Z,5.10
2022-10-15T04:52:24.107Z,5.78
2022-10-15T04:55:26.553Z,4.95
2022-10-15T04:58:33.110Z,5.50
2022-10-15T05:01:35.372Z,8.18
2022-10-15T05:04:38.498Z,4.70
2022-10-15T05:07:40.561Z,6.10
2022-10-15T05:10:44.171Z,5.22
2022-10-15T05:13:47.173Z,5.22
2022-10-15T05:16:49.549Z,6.20
2022-10-15T05:19:51.953Z,4.37
2022-10-15T05:22:55.597Z,5.82
2022-10-15T05:26:03.794Z,5.18
2022-10-15T05:29:06.302Z,5.87
2022-10-15T05:32:08.679Z,5.07
2022-10-15T05:35:11.105Z,4.97
2022-10-15T05:38:15.781Z,5.93
2022-10-15T05:41:18.509Z,5.55
2022-10-15T05:44:20.573Z,5.47
2022-10-15T05:47:23.063Z,5.15
2022-10-15T05:50:31.034Z,6.20
2022-10-15T05:53:33.945Z,5.47
2022-10-15T05:56:36.657Z,5.87
2022-10-15T05:59:38.990Z,6.20
2022-10-15T06:02:41.288Z,6.22
2022-10-15T06:05:43.666Z,6.40
2022-10-15T06:08:46.104Z,6.45
2022-10-15T06:11:48.399Z,4.53
2022-10-15T06:14:53.448Z,6.20
2022-10-15T06:17:55.752Z,4.57
2022-10-15T06:20:58.101Z,6.90
2022-10-15T06:24:00.423Z,6.53
2022-10-15T06:27:02.462Z,5.50
2022-10-15T06:30:05.420Z,5.47
2022-10-15T06:33:07.467Z,6.75
2022-10-15T06:36:11.074Z,7.12
2022-10-15T06:39:13.089Z,4.55
2022-10-15T06:42:16.662Z,5.35
2022-10-15T06:45:22.419Z,4.12
2022-10-15T06:48:24.741Z,6.20
2022-10-15T06:51:26.803Z,5.97
2022-10-15T06:54:29.106Z,5.07
2022-10-15T06:57:31.421Z,5.53
2022-10-15T07:03:39.061Z,5.20
2022-10-15T07:06:42.169Z,5.50
2022-10-15T07:09:44.190Z,6.22
2022-10-15T07:12:46.704Z,5.90
2022-10-15T07:15:53.722Z,5.95
2022-10-15T07:18:56.079Z,5.95
2022-10-15T07:21:58.147Z,7.10
2022-10-15T07:25:00.424Z,6.32
2022-10-15T07:28:02.560Z,6.93
2022-10-15T07:31:06.623Z,6.90
2022-10-15T07:34:08.650Z,5.32
2022-10-15T07:37:10.941Z,4.97
2022-10-15T07:40:13.108Z,4.55
2022-10-15T07:43:16.833Z,4.40
2022-10-15T07:46:18.882Z,4.57
2022-10-15T07:49:21.159Z,4.80
2022-10-15T07:52:23.429Z,3.80
2022-10-15T07:55:25.946Z,4.87
2022-10-15T07:58:30.282Z,5.03
2022-10-15T08:01:33.759Z,5.32
2022-10-15T08:08:48.531Z,4.50
2022-10-15T08:11:51.113Z,4.43
2022-10-15T08:14:54.681Z,3.65
2022-10-15T08:17:56.970Z,4.78
2022-10-15T08:21:00.868Z,4.12
2022-10-15T08:24:03.216Z,4.78
2022-10-15T08:27:08.273Z,6.07
2022-10-15T08:30:11.472Z,3.72
2022-10-15T08:33:13.498Z,4.62
2022-10-15T08:36:15.787Z,3.05
2022-10-15T08:39:19.772Z,3.37
2022-10-15T08:42:31.830Z,3.58
2022-10-15T08:45:42.350Z,3.87
2022-10-15T08:48:53.193Z,3.67
2022-10-15T08:52:06.852Z,3.65
2022-10-15T08:55:13.052Z,3.37
2022-10-15T08:58:30.242Z,3.62
2022-10-15T09:01:43.966Z,3.80
2022-10-15T09:05:26.410Z,2.60
2022-10-15T09:08:38.397Z,3.80
2022-10-15T09:12:01.699Z,2.45
2022-10-15T09:15:10.503Z,2.97
2022-10-15T09:18:20.464Z,3.45
2022-10-15T09:21:27.844Z,3.33
2022-10-15T09:24:35.172Z,2.75
2022-10-15T09:27:39.739Z,2.78
2022-10-15T09:30:59.634Z,2.20
2022-10-15T09:34:19.429Z,2.87
2022-10-15T09:37:29.751Z,3.65
2022-10-15T09:40:59.105Z,3.53
2022-10-15T09:44:04.573Z,3.92
2022-10-15T09:47:34.222Z,2.87
2022-10-15T09:50:44.141Z,3.00
2022-10-15T09:53:56.872Z,3.00
2022-10-15T09:56:58.967Z,2.25
2022-10-15T10:00:07.430Z,2.70
2022-10-15T10:03:15.887Z,2.60
2022-10-15T10:06:18.493Z,2.65
2022-10-15T10:09:24.554Z,3.12
2022-10-15T10:12:33.910Z,2.33
2022-10-15T10:15:41.240Z,2.58
2022-10-15T10:18:50.934Z,2.20
2022-10-15T10:22:07.034Z,2.60
2022-10-15T10:25:31.885Z,2.25
2022-10-15T10:28:44.183Z,1.60
2022-10-15T10:31:51.206Z,1.67
2022-10-15T10:35:04.005Z,1.73
2022-10-15T10:38:06.392Z,2.12
2022-10-15T10:41:10.487Z,1.17
2022-10-15T10:44:21.225Z,2.33
2022-10-15T10:47:26.045Z,1.98
2022-10-15T10:50:33.888Z,3.85
2022-10-15T10:53:46.370Z,2.85
2022-10-15T10:56:48.976Z,2.12
2022-10-15T10:59:53.745Z,2.33
2022-10-15T11:02:56.982Z,1.35
2022-10-15T11:06:30.084Z,2.35
2022-10-15T11:09:50.045Z,2.78
2022-10-15T11:13:30.450Z,2.17
2022-10-15T11:17:15.513Z,1.60
2022-10-15T11:20:46.212Z,2.03
2022-10-15T11:24:15.057Z,1.33
2022-10-15T11:27:44.880Z,1.35
2022-10-15T11:31:06.125Z,1.90
2022-10-15T11:34:16.419Z,1.35
2022-10-15T11:37:41.140Z,2.70
2022-10-15T11:40:51.845Z,1.90
2022-10-15T11:44:12.560Z,1.50
2022-10-15T11:47:32.889Z,1.87
2022-10-15T11:50:37.293Z,1.52
2022-10-15T11:54:01.872Z,1.92
2022-10-15T11:57:04.982Z,2.10
2022-10-15T12:00:29.505Z,1.65
2022-10-15T12:03:39.081Z,1.48
2022-10-15T12:06:46.511Z,1.65
2022-10-15T12:09:53.826Z,1.70
2022-10-15T12:13:08.895Z,1.80
2022-10-15T12:16:25.618Z,1.77
2022-10-15T12:19:44.885Z,1.10
2022-10-15T12:22:47.080Z,1.67
2022-10-15T12:25:49.269Z,1.77
2022-10-15T12:28:59.571Z,1.55
2022-10-15T12:32:04.543Z,1.70
2022-10-15T12:35:15.719Z,1.50
2022-10-15T12:38:29.314Z,1.75
2022-10-15T12:41:47.908Z,1.45
2022-10-15T12:44:50.876Z,1.75
2022-10-15T12:48:16.221Z,2.35
2022-10-15T12:51:24.044Z,1.83
2022-10-15T12:54:41.476Z,1.50
2022-10-15T12:57:46.486Z,1.90
2022-10-15T13:00:48.816Z,1.35
2022-10-15T13:03:50.876Z,1.85
2022-10-15T13:06:53.507Z,1.55
2022-10-15T13:09:55.977Z,1.95
2022-10-15T13:13:03.700Z,2.17
2022-10-15T13:16:09.500Z,1.70
2022-10-15T13:19:25.577Z,2.12
2022-10-15T13:22:30.450Z,1.52
2022-10-15T13:25:33.153Z,1.17
2022-10-15T13:28:38.019Z,2.40
2022-10-15T13:31:40.987Z,1.92
2022-10-15T13:34:43.591Z,1.58
2022-10-15T13:37:46.853Z,2.00
2022-10-15T13:40:51.031Z,1.77
2022-10-15T13:43:58.603Z,1.60
2022-10-15T13:50:26.398Z,1.17
2022-10-15T13:53:37.513Z,2.08
2022-10-15T13:56:47.750Z,1.80
2022-10-15T13:59:54.037Z,1.45
2022-10-15T14:03:16.603Z,1.70
2022-10-15T14:06:29.916Z,1.77
2022-10-15T14:09:38.366Z,1.73
2022-10-15T14:12:40.679Z,1.62
2022-10-15T14:15:47.073Z,2.10
2022-10-15T14:18:52.357Z,1.87
2022-10-15T14:21:54.552Z,2.17
2022-10-15T14:24:57.173Z,1.73
2022-10-15T14:27:59.215Z,1.65
2022-10-15T14:31:02.325Z,1.52
2022-10-15T14:34:04.826Z,2.05
2022-10-15T14:37:28.423Z,1.30
2022-10-15T14:40:30.785Z,1.65
2022-10-15T14:43:35.239Z,2.10
2022-10-15T14:46:41.449Z,2.25
